ADDS METAR Data INFO
IDs: Format: Raw Decoded Include TAF

Data at: 0430 UTC 22 Apr 2018

METAR for:KEDJ (Bellefontaine Rgnl, OH, US)
Text:KEDJ 220415Z AUTO 07008KT 10SM FEW110 07/M09 A3036 RMK AO1
Temperature: 7.0°C ( 45°F)
Dewpoint: -9.0°C ( 16°F) [RH = 31%]
Pressure (altimeter):30.36 inches Hg (1028.2 mb)
Winds:from the ENE (70 degrees) at 9 MPH (8 knots; 4.1 m/s)
Visibility:10 or more sm (16+ km)
Ceiling:at least 12,000 feet AGL
Clouds: few clouds at 11000 feet AGL
QC Flag:automated observation with no human augmentation